Cathlamet — WYR7641 — position and weather

sailwx.info

Track history (hours):
 
Tides and Currents Weather Stations Pressure Air Temp Water Temp Dewpoint Dewpoint Depression Visibility Wind Speed Wind Dir Waves Ship Positions

Cathlamet

Owner: WASHINGTON, STATE OF; Dept. of Transportation, OLYMPIA, WA. More information available from US FCC via Universal Licensing System and Coast Guard Vessel Documentation Center.

Last reported at 2014-Nov-28 00:33 UTC. Time now 2014-Nov-28 01:33 UTC.
Position N 47°31' W 122°24'.

Length 100 m.

Type: Passenger vessel. MMSI: 366773070.

Date/timePositionNaut miles runAvg speedWind from/ knotsBaromVisibWave heightAir tempDewpointWater temp
2014-Nov-28 00:33N 47°31' W 122°24'0 2.4
2014-Nov-28 00:24N 47°31' W 122°24'0 0.5
2014-Nov-27 23:33N 47°31' W 122°24'1 2.8
2014-Nov-27 23:18N 47°32' W 122°25'1 0.9
2014-Nov-27 22:33N 47°31' W 122°24'1 2.9
2014-Nov-27 22:13N 47°31' W 122°25'1 1.5
2014-Nov-27 21:33N 47°31' W 122°24'0 0.5
2014-Nov-27 21:13N 47°31' W 122°24'4 5.9
2014-Nov-27 20:33N 47°31' W 122°30'0 0.7
2014-Nov-27 20:13N 47°31' W 122°30'4 5.8
2014-Nov-27 19:33N 47°31' W 122°24'0 1.2
2014-Nov-27 19:23N 47°31' W 122°24'0 0.3
2014-Nov-27 18:33N 47°31' W 122°24'0 3.4
2014-Nov-27 18:31N 47°31' W 122°24'3 2.8
2014-Nov-27 17:33N 47°31' W 122°28'0 0.3
2014-Nov-27 16:34N 47°31' W 122°28'1 3.9
2014-Nov-27 16:12N 47°31' W 122°30'4 5.9
2014-Nov-27 15:33N 47°31' W 122°24'0 1.7
2014-Nov-27 15:33N 47°31' W 122°24'0 0.1
2014-Nov-27 14:33N 47°31' W 122°24'013.7
2014-Nov-27 14:33N 47°31' W 122°24'2 2.4
2014-Nov-27 13:33N 47°31' W 122°28'0 0.0
2014-Nov-27 13:33N 47°31' W 122°28'3 2.8
2014-Nov-27 12:33N 47°31' W 122°24'0 4.6
2014-Nov-27 12:27N 47°31' W 122°24'4 4.0
2014-Nov-27 11:33N 47°31' W 122°30'0 4.2
2014-Nov-27 11:33N 47°31' W 122°30'1 1.3
2014-Nov-27 10:33N 47°31' W 122°28'0 0.0
2014-Nov-27 10:32N 47°31' W 122°28'0 0.0
2014-Nov-27 09:34N 47°31' W 122°28'0 0.0
2014-Nov-27 09:27N 47°31' W 122°28'1 1.2
2014-Nov-27 08:34N 47°31' W 122°29'013.8
2014-Nov-27 08:32N 47°31' W 122°29'3 3.3
2014-Nov-27 07:33N 47°31' W 122°24'0 0.9
2014-Nov-27 07:22N 47°31' W 122°24'4 9.0
2014-Nov-27 06:57N 47°31' W 122°30'1 3.2
2014-Nov-27 06:34N 47°31' W 122°28'0 0.4
2014-Nov-27 05:33N 47°31' W 122°27'012.6
2014-Nov-27 05:32N 47°31' W 122°27'1 0.7
2014-Nov-27 04:34N 47°31' W 122°28'015.1
2014-Nov-27 04:32N 47°31' W 122°28'3 2.8
2014-Nov-27 03:33N 47°31' W 122°24'0 0.7
2014-Nov-27 03:12N 47°31' W 122°24'4 6.0
2014-Nov-27 02:33N 47°31' W 122°30'1 3.2
2014-Nov-27 02:09N 47°31' W 122°28'3 4.7
2014-Nov-27 01:33N 47°31' W 122°24'1 5.0
2014-Nov-27 01:20N 47°31' W 122°25'1 1.5
2014-Nov-27 00:34N 47°31' W 122°24'1 6.0
2014-Nov-27 00:19N 47°31' W 122°26'1 1.8
2014-Nov-26 23:33N 47°31' W 122°24'2 4.0
2014-Nov-26 22:59N 47°31' W 122°27'1 2.8
2014-Nov-26 22:33N 47°31' W 122°29'115.6
2014-Nov-26 22:29N 47°32' W 122°27'1 1.1
2014-Nov-26 21:34N 47°31' W 122°26'115.0
2014-Nov-26 21:29N 47°31' W 122°25'2 2.5
2014-Nov-26 20:34N 47°31' W 122°28'113.2
2014-Nov-26 20:29N 47°31' W 122°29'4 4.1
2014-Nov-26 19:33N 47°31' W 122°24'0 1.9
2014-Nov-26 19:19N 47°31' W 122°24'0 0.6
2014-Nov-26 18:33N 47°31' W 122°24'1 6.4
2014-Nov-26 18:23N 47°31' W 122°25'2 2.1
2014-Nov-26 17:33N 47°31' W 122°28'0 0.0
2014-Nov-26 17:29N 47°31' W 122°28'0 0.3
2014-Nov-26 16:34N 47°31' W 122°28'2 2.3
2014-Nov-26 15:33N 47°31' W 122°24'0 0.4
2014-Nov-26 14:34N 47°31' W 122°24'112.7
2014-Nov-26 14:29N 47°31' W 122°25'2 1.9
2014-Nov-26 13:34N 47°31' W 122°28'0 0.0
2014-Nov-26 13:33N 47°31' W 122°28'0 0.0
2014-Nov-26 12:34N 47°31' W 122°28'0 0.0
2014-Nov-26 12:34N 47°31' W 122°28'1 1.2
2014-Nov-26 11:34N 47°31' W 122°30'0 0.0
2014-Nov-26 11:33N 47°31' W 122°30'1 1.2
2014-Nov-26 10:33N 47°31' W 122°28'0 0.0
2014-Nov-26 10:33N 47°31' W 122°28'1 1.3
2014-Nov-26 09:33N 47°31' W 122°30'0 0.0
2014-Nov-26 09:33N 47°31' W 122°30'2 1.8
2014-Nov-26 08:33N 47°31' W 122°27'016.6
2014-Nov-26 08:33N 47°31' W 122°27'2 2.5
2014-Nov-26 07:33N 47°31' W 122°24'0 2.3
2014-Nov-26 07:23N 47°31' W 122°24'2 2.8
2014-Nov-26 06:34N 47°31' W 122°28'0 0.0
2014-Nov-26 05:34N 47°31' W 122°28'0 0.1
2014-Nov-26 04:34N 47°31' W 122°28'0 0.4
2014-Nov-26 03:51N 47°31' W 122°28'3 9.0
2014-Nov-26 03:33N 47°31' W 122°24'0 1.1
2014-Nov-26 03:11N 47°31' W 122°25'4 5.7
2014-Nov-26 02:33N 47°31' W 122°30'1 2.4
2014-Nov-26 02:21N 47°31' W 122°29'4 4.6
2014-Nov-26 01:33N 47°31' W 122°24'1 5.6
2014-Nov-26 01:21N 47°31' W 122°26'1 1.5
2014-Nov-26 00:33N 47°31' W 122°24'1 3.8
2014-Nov-26 00:25N 47°31' W 122°24'1 0.6
2014-Nov-25 23:33N 47°31' W 122°24'1 1.7
2014-Nov-25 23:05N 47°32' W 122°25'3 5.6
2014-Nov-25 22:34N 47°31' W 122°29'114.9
2014-Nov-25 22:30N 47°32' W 122°28'2 1.6
2014-Nov-25 21:34N 47°31' W 122°26'114.9
2014-Nov-25 21:30N 47°31' W 122°25'2 2.4
2014-Nov-25 20:34N 47°31' W 122°28'1 7.1
2014-Nov-25 20:24N 47°31' W 122°30'4 4.8
2014-Nov-25 19:33N 47°31' W 122°24'0 1.8
2014-Nov-25 19:19N 47°31' W 122°24'0 0.6
2014-Nov-25 18:33N 47°31' W 122°24'0 4.0
2014-Nov-25 18:28N 47°31' W 122°24'2 2.7
2014-Nov-25 17:33N 47°31' W 122°28'0 0.0
2014-Nov-25 17:33N 47°31' W 122°28'0 0.1
2014-Nov-25 16:34N 47°31' W 122°28'015.4
2014-Nov-25 16:33N 47°31' W 122°28'2 2.5
2014-Nov-25 15:34N 47°31' W 122°24'013.6
2014-Nov-25 15:33N 47°31' W 122°24'0 0.3
2014-Nov-25 14:33N 47°31' W 122°24'0 9.8
2014-Nov-25 14:33N 47°31' W 122°24'3 2.6
2014-Nov-25 13:34N 47°31' W 122°28'0 0.0
2014-Nov-25 13:33N 47°31' W 122°28'0 0.0
2014-Nov-25 12:34N 47°31' W 122°28'0 1.7
2014-Nov-25 12:33N 47°31' W 122°28'1 1.3
2014-Nov-25 11:34N 47°31' W 122°30'0 0.0
2014-Nov-25 10:53N 47°31' W 122°30'1 4.0
2014-Nov-25 10:33N 47°31' W 122°28'0 0.0
2014-Nov-25 10:27N 47°31' W 122°28'1 1.4
2014-Nov-25 09:33N 47°31' W 122°30'0 6.0
2014-Nov-25 09:32N 47°31' W 122°30'2 1.6
2014-Nov-25 08:33N 47°31' W 122°27'014.9
2014-Nov-25 08:32N 47°31' W 122°28'3 2.8
2014-Nov-25 07:33N 47°31' W 122°24'0 3.7
2014-Nov-25 07:31N 47°31' W 122°24'4 6.7
2014-Nov-25 06:56N 47°31' W 122°30'1 3.2
2014-Nov-25 06:34N 47°31' W 122°28'0 0.1
2014-Nov-25 05:34N 47°31' W 122°28'0 9.4
2014-Nov-25 05:31N 47°31' W 122°27'0 0.4
2014-Nov-25 04:34N 47°31' W 122°28'112.1
2014-Nov-25 04:31N 47°31' W 122°29'3 3.4
2014-Nov-25 03:33N 47°31' W 122°24'1 2.8
2014-Nov-25 03:16N 47°31' W 122°25'3 4.2
2014-Nov-25 02:34N 47°31' W 122°30'0 1.0
2014-Nov-25 02:25N 47°31' W 122°30'4 4.7
2014-Nov-25 01:34N 47°31' W 122°24'1 3.2
2014-Nov-25 01:21N 47°31' W 122°25'1 0.9
2014-Nov-25 00:33N 47°31' W 122°24'0 1.5
2014-Nov-25 00:25N 47°31' W 122°24'0 0.2
2014-Nov-24 23:33N 47°31' W 122°24'1 1.7
2014-Nov-24 23:06N 47°32' W 122°25'3 5.8
2014-Nov-24 22:34N 47°31' W 122°29'111.3
2014-Nov-24 22:31N 47°31' W 122°29'2 1.7
2014-Nov-24 21:33N 47°31' W 122°26'116.4
2014-Nov-24 21:30N 47°31' W 122°25'2 2.2
2014-Nov-24 20:34N 47°31' W 122°28'116.0
2014-Nov-24 20:30N 47°31' W 122°29'4 3.9
2014-Nov-24 19:33N 47°31' W 122°24'1 2.7
2014-Nov-24 19:15N 47°31' W 122°25'1 1.2
2014-Nov-24 18:33N 47°31' W 122°24'0 2.8
2014-Nov-24 18:29N 47°31' W 122°24'3 2.8
2014-Nov-24 17:34N 47°31' W 122°28'0 1.4
2014-Nov-24 17:29N 47°31' W 122°28'0 0.2
2014-Nov-24 16:33N 47°31' W 122°28'016.3
2014-Nov-24 16:33N 47°31' W 122°28'3 2.7
2014-Nov-24 15:33N 47°31' W 122°24'012.3
2014-Nov-24 15:33N 47°31' W 122°25'0 0.4
2014-Nov-24 14:33N 47°31' W 122°24'0 7.4
2014-Nov-24 14:32N 47°31' W 122°24'3 2.7
2014-Nov-24 13:34N 47°31' W 122°28'0 0.0
2014-Nov-24 13:33N 47°31' W 122°28'0 0.0
2014-Nov-24 12:33N 47°31' W 122°28'0 0.0
2014-Nov-24 12:33N 47°31' W 122°28'1 1.3
2014-Nov-24 11:33N 47°31' W 122°30'0 2.2
2014-Nov-24 11:32N 47°31' W 122°30'1 1.3
2014-Nov-24 10:33N 47°31' W 122°28'0 0.3
2014-Nov-24 10:32N 47°31' W 122°28'1 1.3
2014-Nov-24 09:33N 47°31' W 122°30'0 2.0
2014-Nov-24 09:33N 47°31' W 122°30'2 1.8
2014-Nov-24 08:33N 47°31' W 122°27'015.6
2014-Nov-24 08:33N 47°31' W 122°27'2 2.4
2014-Nov-24 07:33N 47°31' W 122°24'0 2.3
2014-Nov-24 07:22N 47°31' W 122°24'2 3.1
2014-Nov-24 06:36N 47°31' W 122°28'0 3.0
2014-Nov-24 06:34N 47°31' W 122°28'0 0.0
2014-Nov-24 05:34N 47°31' W 122°28'112.5
2014-Nov-24 05:29N 47°31' W 122°27'1 1.2
2014-Nov-24 04:34N 47°31' W 122°28'114.5
2014-Nov-24 04:30N 47°31' W 122°30'4 4.1
2014-Nov-24 03:32N 47°31' W 122°24'1 3.0
2014-Nov-24 03:22N 47°31' W 122°24'1 0.6
2014-Nov-24 02:31N 47°31' W 122°24'0 1.5
2014-Nov-24 02:23N 47°31' W 122°24'0 0.3
2014-Nov-24 01:33N 47°31' W 122°24'0 1.0
2014-Nov-24 01:22N 47°31' W 122°24'3 4.3
2014-Nov-24 00:33N 47°31' W 122°29'010.8
2014-Nov-24 00:32N 47°31' W 122°29'1 1.3
2014-Nov-23 23:34N 47°31' W 122°27'010.2
2014-Nov-23 23:32N 47°31' W 122°27'0 0.3
2014-Nov-23 22:34N 47°31' W 122°28'115.0
2014-Nov-23 22:30N 47°31' W 122°26'1 1.0
2014-Nov-23 21:33N 47°31' W 122°28'0 0.2
2014-Nov-23 20:36N 47°31' W 122°28'114.7
2014-Nov-23 20:33N 47°31' W 122°29'1 1.6
2014-Nov-23 20:05N 47°31' W 122°28'3 5.1
2014-Nov-23 19:32N 47°31' W 122°24'4 7.0
2014-Nov-23 18:58N 47°31' W 122°30'1 3.0
2014-Nov-23 18:33N 47°31' W 122°28'0 0.0
2014-Nov-23 18:32N 47°31' W 122°28'0 0.0
2014-Nov-23 17:33N 47°31' W 122°28'0 0.1
2014-Nov-23 16:49N 47°31' W 122°28'310.4
2014-Nov-23 16:33N 47°31' W 122°24'0 0.4
2014-Nov-23 16:13N 47°31' W 122°24'4 5.9
2014-Nov-23 15:33N 47°31' W 122°30'0 0.0
2014-Nov-23 15:33N 47°31' W 122°30'4 4.1
2014-Nov-23 14:33N 47°31' W 122°24'111.4
2014-Nov-23 14:28N 47°31' W 122°25'2 2.0
2014-Nov-23 13:33N 47°31' W 122°28'0 0.0
2014-Nov-23 13:33N 47°31' W 122°28'0 0.0
2014-Nov-23 12:33N 47°31' W 122°28'0 0.0
2014-Nov-23 12:33N 47°31' W 122°28'1 1.3
2014-Nov-23 11:33N 47°31' W 122°30'0 0.0
2014-Nov-23 11:27N 47°31' W 122°30'1 1.5
2014-Nov-23 10:33N 47°31' W 122°28'0 0.0
2014-Nov-23 10:33N 47°31' W 122°28'1 1.3
2014-Nov-23 09:33N 47°31' W 122°30'0 0.0
2014-Nov-23 09:33N 47°31' W 122°30'2 2.0
2014-Nov-23 08:33N 47°31' W 122°27'012.0
2014-Nov-23 08:32N 47°31' W 122°27'2 2.4
2014-Nov-23 07:33N 47°31' W 122°24'0 1.2
2014-Nov-23 07:23N 47°31' W 122°24'4 8.7
2014-Nov-23 06:57N 47°31' W 122°30'1 3.0
2014-Nov-23 06:34N 47°31' W 122°28'0 0.1
2014-Nov-23 05:33N 47°31' W 122°28'0 4.3
2014-Nov-23 05:32N 47°31' W 122°28'0 0.4
2014-Nov-23 04:34N 47°31' W 122°28'012.0
2014-Nov-23 04:32N 47°31' W 122°29'3 3.3
2014-Nov-23 03:33N 47°31' W 122°24'0 0.7
2014-Nov-23 03:22N 47°31' W 122°24'0 0.2
2014-Nov-23 02:33N 47°31' W 122°24'0 2.4
2014-Nov-23 02:22N 47°31' W 122°24'0 0.5
2014-Nov-23 01:33N 47°31' W 122°24'1 6.2
2014-Nov-23 01:27N 47°31' W 122°25'2 2.4
2014-Nov-23 00:33N 47°31' W 122°28'0 5.9
2014-Nov-23 00:32N 47°31' W 122°28'0 0.1
2014-Nov-22 23:34N 47°31' W 122°28'0 0.2
2014-Nov-22 23:31N 47°31' W 122°28'0 0.4
2014-Nov-22 22:34N 47°31' W 122°28'114.0
2014-Nov-22 22:31N 47°31' W 122°27'0 0.5
2014-Nov-22 21:33N 47°31' W 122°28'012.9
2014-Nov-22 21:31N 47°31' W 122°27'1 0.6
2014-Nov-22 20:34N 47°31' W 122°28'011.1
2014-Nov-22 20:31N 47°31' W 122°29'3 3.3
2014-Nov-22 19:33N 47°31' W 122°24'1 6.3
2014-Nov-22 19:26N 47°31' W 122°25'2 2.3
2014-Nov-22 18:33N 47°31' W 122°28'0 0.0
2014-Nov-22 18:31N 47°31' W 122°28'0 0.0
2014-Nov-22 17:33N 47°31' W 122°28'0 1.6
2014-Nov-22 17:31N 47°31' W 122°28'3 2.9
2014-Nov-22 16:33N 47°31' W 122°24'1 1.7
2014-Nov-22 16:11N 47°31' W 122°25'3 5.5
2014-Nov-22 15:33N 47°31' W 122°30'0 0.0
2014-Nov-22 15:31N 47°31' W 122°30'4 4.2
2014-Nov-22 14:34N 47°31' W 122°24'0 6.4
2014-Nov-22 14:30N 47°31' W 122°24'2 2.6
2014-Nov-22 13:33N 47°31' W 122°28'1 1.5
2014-Nov-22 12:48N 47°31' W 122°26'1 5.4
2014-Nov-22 12:34N 47°31' W 122°28'1 1.1
2014-Nov-22 11:34N 47°31' W 122°30'4 4.1
2014-Nov-22 10:33N 47°31' W 122°24'3 4.1
2014-Nov-22 09:52N 47°31' W 122°28'3 8.9
2014-Nov-22 09:33N 47°31' W 122°24'3 9.9
2014-Nov-22 09:16N 47°31' W 122°28'3 3.9
2014-Nov-22 08:33N 47°31' W 122°24'1 1.2
2014-Nov-22 07:34N 47°31' W 122°26'2 3.9
2014-Nov-22 07:07N 47°31' W 122°28'3 5.0
2014-Nov-22 06:33N 47°31' W 122°24'1 4.2
2014-Nov-22 06:17N 47°31' W 122°25'3 3.8
2014-Nov-22 05:34N 47°31' W 122°30'0 3.8
2014-Nov-22 05:32N 47°31' W 122°30'2 1.7
2014-Nov-22 04:34N 47°31' W 122°27'013.2
2014-Nov-22 04:32N 47°31' W 122°27'0 0.4
2014-Nov-22 03:33N 47°31' W 122°28'0 3.3
2014-Nov-22 03:32N 47°31' W 122°28'3 2.8
2014-Nov-22 02:33N 47°31' W 122°24'1 1.8
2014-Nov-22 02:12N 47°32' W 122°25'2 3.5
2014-Nov-22 01:33N 47°31' W 122°28'0 0.0
2014-Nov-22 01:31N 47°31' W 122°28'0 0.0
2014-Nov-22 00:34N 47°31' W 122°28'0 0.0
2014-Nov-22 00:31N 47°31' W 122°28'1 1.4
2014-Nov-21 23:33N 47°31' W 122°26'012.5
2014-Nov-21 23:31N 47°31' W 122°26'2 1.7
2014-Nov-21 22:33N 47°31' W 122°24'114.6
2014-Nov-21 22:31N 47°31' W 122°25'2 2.1
2014-Nov-21 21:33N 47°31' W 122°28'0 0.1
2014-Nov-21 21:31N 47°31' W 122°28'2 1.7
2014-Nov-21 20:33N 47°31' W 122°25'213.5
2014-Nov-21 20:26N 47°31' W 122°28'0 0.1
2014-Nov-21 19:33N 47°31' W 122°28'0 3.0
2014-Nov-21 19:31N 47°31' W 122°28'1 0.5
2014-Nov-21 18:34N 47°31' W 122°27'115.0
2014-Nov-21 18:31N 47°31' W 122°27'1 1.1
2014-Nov-21 17:34N 47°31' W 122°28'1 3.4
2014-Nov-21 17:10N 47°31' W 122°30'4 6.6
2014-Nov-21 16:33N 47°31' W 122°24'110.8
2014-Nov-21 16:29N 47°31' W 122°25'2 2.1
2014-Nov-21 15:33N 47°31' W 122°28'0 0.0
2014-Nov-21 15:30N 47°31' W 122°28'0 0.0
2014-Nov-21 14:33N 47°31' W 122°28'0 0.1
2014-Nov-21 14:30N 47°31' W 122°28'0 0.0
2014-Nov-21 13:33N 47°31' W 122°28'0 0.0
2014-Nov-21 13:30N 47°31' W 122°28'0 0.0
2014-Nov-21 12:33N 47°31' W 122°28'0 0.0
2014-Nov-21 12:29N 47°31' W 122°28'0 0.0
2014-Nov-21 11:33N 47°31' W 122°28'0 0.0
2014-Nov-21 11:29N 47°31' W 122°28'0 0.0
2014-Nov-21 10:33N 47°31' W 122°28'0 0.0
2014-Nov-21 10:29N 47°31' W 122°28'0 0.0
2014-Nov-21 09:33N 47°31' W 122°28'0 0.0
2014-Nov-21 09:29N 47°31' W 122°28'0 0.0
2014-Nov-21 08:33N 47°31' W 122°28'0 0.0
2014-Nov-21 08:29N 47°31' W 122°28'0 0.0
2014-Nov-21 07:33N 47°31' W 122°28'0 0.0
2014-Nov-21 07:28N 47°31' W 122°28'0 0.0
2014-Nov-21 06:53N 47°31' W 122°28'0 0.0
2014-Nov-21 06:33N 47°31' W 122°28'1 1.3
2014-Nov-21 05:33N 47°31' W 122°30'0 2.9
2014-Nov-21 05:28N 47°31' W 122°30'2 1.8
2014-Nov-21 04:34N 47°31' W 122°27'1 6.6
2014-Nov-21 04:28N 47°31' W 122°28'0 0.0
2014-Nov-21 03:33N 47°31' W 122°28'0 0.0
2014-Nov-21 03:33N 47°31' W 122°28'3 2.8
2014-Nov-21 02:33N 47°31' W 122°24'1 1.7
2014-Nov-21 02:08N 47°32' W 122°25'2 3.7
2014-Nov-21 01:34N 47°31' W 122°28'0 1.7
2014-Nov-21 01:33N 47°31' W 122°28'0 0.1
2014-Nov-21 00:34N 47°31' W 122°28'0 0.0
2014-Nov-21 00:33N 47°31' W 122°28'1 1.2
2014-Nov-20 23:33N 47°31' W 122°26'110.1
2014-Nov-20 23:26N 47°31' W 122°28'1 1.1
2014-Nov-20 22:34N 47°31' W 122°26'115.9
2014-Nov-20 22:31N 47°31' W 122°27'0 0.4
2014-Nov-20 21:33N 47°31' W 122°28'0 0.0
2014-Nov-20 21:30N 47°31' W 122°28'1 1.5
2014-Nov-20 20:34N 47°31' W 122°26'112.8
2014-Nov-20 20:31N 47°31' W 122°27'1 0.8
2014-Nov-20 19:34N 47°31' W 122°28'0 3.2
2014-Nov-20 19:31N 47°31' W 122°28'1 0.6
2014-Nov-20 18:33N 47°31' W 122°27'112.7
2014-Nov-20 18:30N 47°31' W 122°26'1 1.2
2014-Nov-20 17:34N 47°31' W 122°28'1 6.5
2014-Nov-20 17:25N 47°31' W 122°29'4 4.2
2014-Nov-20 16:34N 47°31' W 122°24'0 7.5
2014-Nov-20 16:30N 47°31' W 122°24'2 2.5
2014-Nov-20 15:33N 47°31' W 122°28'0 0.1
2014-Nov-20 15:30N 47°31' W 122°28'0 0.0
2014-Nov-20 14:33N 47°31' W 122°28'0 0.1
2014-Nov-20 14:30N 47°31' W 122°28'0 0.0
2014-Nov-20 13:33N 47°31' W 122°28'0 0.0
2014-Nov-20 13:30N 47°31' W 122°28'0 0.0
2014-Nov-20 12:33N 47°31' W 122°28'0 0.0
2014-Nov-20 12:30N 47°31' W 122°28'0 0.0
2014-Nov-20 11:33N 47°31' W 122°28'0 0.0
2014-Nov-20 11:29N 47°31' W 122°28'0 0.0
2014-Nov-20 10:34N 47°31' W 122°28'0 0.0
2014-Nov-20 10:29N 47°31' W 122°28'0 0.0
2014-Nov-20 09:34N 47°31' W 122°28'0 0.0
2014-Nov-20 09:29N 47°31' W 122°28'0 0.0
2014-Nov-20 08:33N 47°31' W 122°28'0 0.0
2014-Nov-20 08:24N 47°31' W 122°28'0 0.0
2014-Nov-20 07:49N 47°31' W 122°28'0 0.0
2014-Nov-20 07:33N 47°31' W 122°28'0 0.0
2014-Nov-20 06:33N 47°31' W 122°28'0 0.0
2014-Nov-20 06:28N 47°31' W 122°28'1 1.5
2014-Nov-20 05:33N 47°31' W 122°30'0 0.0
2014-Nov-20 05:33N 47°31' W 122°30'2 1.7
2014-Nov-20 04:34N 47°31' W 122°27'011.7
2014-Nov-20 04:33N 47°31' W 122°27'0 0.4
2014-Nov-20 03:33N 47°31' W 122°28'0 2.2
2014-Nov-20 03:32N 47°31' W 122°28'3 2.9
2014-Nov-20 02:33N 47°31' W 122°24'3 2.8
2014-Nov-20 01:33N 47°31' W 122°28'2 2.3
2014-Nov-20 00:44N 47°31' W 122°25'210.7
2014-Nov-20 00:33N 47°31' W 122°28'0 0.0
2014-Nov-20 00:29N 47°31' W 122°28'1 1.6
2014-Nov-19 23:33N 47°31' W 122°26'115.4
2014-Nov-19 23:28N 47°31' W 122°28'3 2.8
2014-Nov-19 22:33N 47°31' W 122°24'110.1
2014-Nov-19 22:28N 47°31' W 122°25'2 2.1
2014-Nov-19 21:34N 47°31' W 122°28'0 1.5
2014-Nov-19 21:33N 47°31' W 122°28'2 1.5
2014-Nov-19 20:33N 47°31' W 122°26'010.5
2014-Nov-19 20:33N 47°31' W 122°26'1 1.1
2014-Nov-19 19:34N 47°31' W 122°27'010.1
2014-Nov-19 19:33N 47°31' W 122°27'0 0.3
2014-Nov-19 18:34N 47°31' W 122°28'014.9
2014-Nov-19 18:32N 47°31' W 122°27'1 0.7
2014-Nov-19 17:33N 47°31' W 122°28'1 2.8
2014-Nov-19 17:05N 47°31' W 122°30'4 7.6
2014-Nov-19 16:33N 47°31' W 122°24'1 9.1
2014-Nov-19 16:26N 47°31' W 122°25'2 1.9
2014-Nov-19 15:33N 47°31' W 122°28'0 0.2
2014-Nov-19 15:30N 47°31' W 122°28'0 0.0
2014-Nov-19 14:33N 47°31' W 122°28'1 1.4
2014-Nov-19 13:54N 47°31' W 122°27'1 2.5
2014-Nov-19 13:33N 47°31' W 122°28'0 0.0
2014-Nov-19 13:29N 47°31' W 122°28'0 0.0
2014-Nov-19 12:33N 47°31' W 122°28'0 0.0
2014-Nov-19 12:29N 47°31' W 122°28'0 0.0
2014-Nov-19 11:33N 47°31' W 122°28'0 0.0
2014-Nov-19 11:29N 47°31' W 122°28'0 0.0
2014-Nov-19 10:33N 47°31' W 122°28'0 0.0
2014-Nov-19 10:29N 47°31' W 122°28'0 0.0
2014-Nov-19 09:33N 47°31' W 122°28'0 0.0
2014-Nov-19 09:29N 47°31' W 122°28'0 0.0
2014-Nov-19 08:33N 47°31' W 122°28'0 0.0
2014-Nov-19 08:29N 47°31' W 122°28'0 0.0
2014-Nov-19 07:34N 47°31' W 122°28'0 0.0
2014-Nov-19 07:33N 47°31' W 122°28'0 0.0
2014-Nov-19 06:58N 47°31' W 122°28'0 0.0
2014-Nov-19 06:33N 47°31' W 122°28'1 1.3
2014-Nov-19 05:33N 47°31' W 122°30'0 0.0
2014-Nov-19 05:33N 47°31' W 122°30'2 1.8
2014-Nov-19 04:33N 47°31' W 122°27'015.3
2014-Nov-19 04:33N 47°31' W 122°27'0 0.5
2014-Nov-19 03:33N 47°31' W 122°28'0 0.0
2014-Nov-19 03:33N 47°31' W 122°28'0 0.0
2014-Nov-19 02:33N 47°31' W 122°28'0 0.0
2014-Nov-19 02:13N 47°31' W 122°28'0 0.0
2014-Nov-19 01:33N 47°31' W 122°28'0 0.0
2014-Nov-19 01:28N 47°31' W 122°28'0 0.0
2014-Nov-19 00:33N 47°31' W 122°28'0 0.0
2014-Nov-19 00:33N 47°31' W 122°28'1 1.3
2014-Nov-18 23:33N 47°31' W 122°26'015.6
2014-Nov-18 23:33N 47°31' W 122°26'2 1.7
2014-Nov-18 22:33N 47°31' W 122°24'113.2
2014-Nov-18 22:27N 47°31' W 122°26'1 1.6
2014-Nov-18 21:34N 47°31' W 122°28'0 0.0
2014-Nov-18 21:32N 47°31' W 122°28'2 1.7
2014-Nov-18 20:34N 47°31' W 122°25'114.6
2014-Nov-18 20:28N 47°31' W 122°27'0 0.1
2014-Nov-18 19:34N 47°31' W 122°28'0 2.1
2014-Nov-18 19:27N 47°31' W 122°28'0 0.5
2014-Nov-18 18:33N 47°31' W 122°27'116.6
2014-Nov-18 18:31N 47°31' W 122°26'1 1.0
2014-Nov-18 17:34N 47°31' W 122°28'110.8
2014-Nov-18 17:26N 47°31' W 122°30'4 4.5
2014-Nov-18 16:33N 47°31' W 122°24'0 3.0
2014-Nov-18 16:31N 47°31' W 122°24'3 2.8
2014-Nov-18 15:33N 47°31' W 122°28'0 0.0
2014-Nov-18 15:30N 47°31' W 122°28'0 0.0
2014-Nov-18 14:33N 47°31' W 122°28'0 0.1
2014-Nov-18 14:31N 47°31' W 122°28'0 0.0
2014-Nov-18 13:33N 47°31' W 122°28'0 0.0
2014-Nov-18 13:21N 47°31' W 122°28'0 0.0
2014-Nov-18 12:33N 47°31' W 122°28'0 0.0
2014-Nov-18 12:31N 47°31' W 122°28'0 0.0
2014-Nov-18 11:33N 47°31' W 122°28'0 0.1
2014-Nov-18 11:31N 47°31' W 122°28'0 0.0
2014-Nov-18 10:33N 47°31' W 122°28'0 0.1
2014-Nov-18 10:30N 47°31' W 122°28'0 0.0
2014-Nov-18 09:33N 47°31' W 122°28'0 0.0
2014-Nov-18 09:30N 47°31' W 122°28'0 0.0
2014-Nov-18 08:33N 47°31' W 122°28'0 0.0
2014-Nov-18 08:30N 47°31' W 122°28'0 0.0
2014-Nov-18 07:33N 47°31' W 122°28'0 0.0
2014-Nov-18 07:30N 47°31' W 122°28'0 0.0
2014-Nov-18 07:00N 47°31' W 122°28'0 0.0
2014-Nov-18 06:33N 47°31' W 122°28'1 1.3
2014-Nov-18 05:33N 47°31' W 122°30'0 1.1
2014-Nov-18 05:30N 47°31' W 122°30'2 1.6
2014-Nov-18 04:33N 47°31' W 122°27'0 5.7
2014-Nov-18 04:30N 47°31' W 122°28'0 0.0
2014-Nov-18 03:33N 47°31' W 122°28'1 8.1
2014-Nov-18 03:29N 47°31' W 122°28'3 3.3
2014-Nov-18 02:33N 47°31' W 122°24'0 1.3
2014-Nov-18 02:09N 47°32' W 122°25'2 4.0
2014-Nov-18 01:33N 47°31' W 122°28'0 0.5
2014-Nov-18 01:29N 47°31' W 122°28'0 0.0
2014-Nov-18 00:33N 47°31' W 122°28'  
Track history (hours):
 
Tides and Currents Weather Stations Pressure Air Temp Water Temp Dewpoint Dewpoint Depression Visibility Wind Speed Wind Dir Waves Ship Positions

Cathlamet

Owner: WASHINGTON, STATE OF; Dept. of Transportation, OLYMPIA, WA. More information available from US FCC via Universal Licensing System and Coast Guard Vessel Documentation Center.

Last reported at 2014-Nov-28 00:33 UTC. Time now 2014-Nov-28 01:33 UTC.
Position N 47°31' W 122°24'.

Length 100 m.

Type: Passenger vessel. MMSI: 366773070.

Date/timePositionNaut miles runAvg speedWind from/ knotsBaromVisibWave heightAir tempDewpointWater temp
2014-Nov-28 00:33N 47°31' W 122°24'0 2.4
2014-Nov-28 00:24N 47°31' W 122°24'0 0.5
2014-Nov-27 23:33N 47°31' W 122°24'1 2.8
2014-Nov-27 23:18N 47°32' W 122°25'1 0.9
2014-Nov-27 22:33N 47°31' W 122°24'1 2.9
2014-Nov-27 22:13N 47°31' W 122°25'1 1.5
2014-Nov-27 21:33N 47°31' W 122°24'0 0.5
2014-Nov-27 21:13N 47°31' W 122°24'4 5.9
2014-Nov-27 20:33N 47°31' W 122°30'0 0.7
2014-Nov-27 20:13N 47°31' W 122°30'4 5.8
2014-Nov-27 19:33N 47°31' W 122°24'0 1.2
2014-Nov-27 19:23N 47°31' W 122°24'0 0.3
2014-Nov-27 18:33N 47°31' W 122°24'0 3.4
2014-Nov-27 18:31N 47°31' W 122°24'3 2.8
2014-Nov-27 17:33N 47°31' W 122°28'0 0.3
2014-Nov-27 16:34N 47°31' W 122°28'1 3.9
2014-Nov-27 16:12N 47°31' W 122°30'4 5.9
2014-Nov-27 15:33N 47°31' W 122°24'0 1.7
2014-Nov-27 15:33N 47°31' W 122°24'0 0.1
2014-Nov-27 14:33N 47°31' W 122°24'013.7
2014-Nov-27 14:33N 47°31' W 122°24'2 2.4
2014-Nov-27 13:33N 47°31' W 122°28'0 0.0
2014-Nov-27 13:33N 47°31' W 122°28'3 2.8
2014-Nov-27 12:33N 47°31' W 122°24'0 4.6
2014-Nov-27 12:27N 47°31' W 122°24'4 4.0
2014-Nov-27 11:33N 47°31' W 122°30'0 4.2
2014-Nov-27 11:33N 47°31' W 122°30'1 1.3
2014-Nov-27 10:33N 47°31' W 122°28'0 0.0
2014-Nov-27 10:32N 47°31' W 122°28'0 0.0
2014-Nov-27 09:34N 47°31' W 122°28'0 0.0
2014-Nov-27 09:27N 47°31' W 122°28'1 1.2
2014-Nov-27 08:34N 47°31' W 122°29'013.8
2014-Nov-27 08:32N 47°31' W 122°29'3 3.3
2014-Nov-27 07:33N 47°31' W 122°24'0 0.9
2014-Nov-27 07:22N 47°31' W 122°24'4 9.0
2014-Nov-27 06:57N 47°31' W 122°30'1 3.2
2014-Nov-27 06:34N 47°31' W 122°28'0 0.4
2014-Nov-27 05:33N 47°31' W 122°27'012.6
2014-Nov-27 05:32N 47°31' W 122°27'1 0.7
2014-Nov-27 04:34N 47°31' W 122°28'015.1
2014-Nov-27 04:32N 47°31' W 122°28'3 2.8
2014-Nov-27 03:33N 47°31' W 122°24'0 0.7
2014-Nov-27 03:12N 47°31' W 122°24'4 6.0
2014-Nov-27 02:33N 47°31' W 122°30'1 3.2
2014-Nov-27 02:09N 47°31' W 122°28'3 4.7
2014-Nov-27 01:33N 47°31' W 122°24'1 5.0
2014-Nov-27 01:20N 47°31' W 122°25'1 1.5
2014-Nov-27 00:34N 47°31' W 122°24'1 6.0
2014-Nov-27 00:19N 47°31' W 122°26'1 1.8
2014-Nov-26 23:33N 47°31' W 122°24'2 4.0
2014-Nov-26 22:59N 47°31' W 122°27'1 2.8
2014-Nov-26 22:33N 47°31' W 122°29'115.6
2014-Nov-26 22:29N 47°32' W 122°27'1 1.1
2014-Nov-26 21:34N 47°31' W 122°26'115.0
2014-Nov-26 21:29N 47°31' W 122°25'2 2.5
2014-Nov-26 20:34N 47°31' W 122°28'113.2
2014-Nov-26 20:29N 47°31' W 122°29'4 4.1
2014-Nov-26 19:33N 47°31' W 122°24'0 1.9
2014-Nov-26 19:19N 47°31' W 122°24'0 0.6
2014-Nov-26 18:33N 47°31' W 122°24'1 6.4
2014-Nov-26 18:23N 47°31' W 122°25'2 2.1
2014-Nov-26 17:33N 47°31' W 122°28'0 0.0
2014-Nov-26 17:29N 47°31' W 122°28'0 0.3
2014-Nov-26 16:34N 47°31' W 122°28'2 2.3
2014-Nov-26 15:33N 47°31' W 122°24'0 0.4
2014-Nov-26 14:34N 47°31' W 122°24'112.7
2014-Nov-26 14:29N 47°31' W 122°25'2 1.9
2014-Nov-26 13:34N 47°31' W 122°28'0 0.0
2014-Nov-26 13:33N 47°31' W 122°28'0 0.0
2014-Nov-26 12:34N 47°31' W 122°28'0 0.0
2014-Nov-26 12:34N 47°31' W 122°28'1 1.2
2014-Nov-26 11:34N 47°31' W 122°30'0 0.0
2014-Nov-26 11:33N 47°31' W 122°30'1 1.2
2014-Nov-26 10:33N 47°31' W 122°28'0 0.0
2014-Nov-26 10:33N 47°31' W 122°28'1 1.3
2014-Nov-26 09:33N 47°31' W 122°30'0 0.0
2014-Nov-26 09:33N 47°31' W 122°30'2 1.8
2014-Nov-26 08:33N 47°31' W 122°27'016.6
2014-Nov-26 08:33N 47°31' W 122°27'2 2.5
2014-Nov-26 07:33N 47°31' W 122°24'0 2.3
2014-Nov-26 07:23N 47°31' W 122°24'2 2.8
2014-Nov-26 06:34N 47°31' W 122°28'0 0.0
2014-Nov-26 05:34N 47°31' W 122°28'0 0.1
2014-Nov-26 04:34N 47°31' W 122°28'0 0.4
2014-Nov-26 03:51N 47°31' W 122°28'3 9.0
2014-Nov-26 03:33N 47°31' W 122°24'0 1.1
2014-Nov-26 03:11N 47°31' W 122°25'4 5.7
2014-Nov-26 02:33N 47°31' W 122°30'1 2.4
2014-Nov-26 02:21N 47°31' W 122°29'4 4.6
2014-Nov-26 01:33N 47°31' W 122°24'1 5.6
2014-Nov-26 01:21N 47°31' W 122°26'1 1.5
2014-Nov-26 00:33N 47°31' W 122°24'1 3.8
2014-Nov-26 00:25N 47°31' W 122°24'1 0.6
2014-Nov-25 23:33N 47°31' W 122°24'1 1.7
2014-Nov-25 23:05N 47°32' W 122°25'3 5.6
2014-Nov-25 22:34N 47°31' W 122°29'114.9
2014-Nov-25 22:30N 47°32' W 122°28'2 1.6
2014-Nov-25 21:34N 47°31' W 122°26'114.9
2014-Nov-25 21:30N 47°31' W 122°25'2 2.4
2014-Nov-25 20:34N 47°31' W 122°28'1 7.1
2014-Nov-25 20:24N 47°31' W 122°30'4 4.8
2014-Nov-25 19:33N 47°31' W 122°24'0 1.8
2014-Nov-25 19:19N 47°31' W 122°24'0 0.6
2014-Nov-25 18:33N 47°31' W 122°24'0 4.0
2014-Nov-25 18:28N 47°31' W 122°24'2 2.7
2014-Nov-25 17:33N 47°31' W 122°28'0 0.0
2014-Nov-25 17:33N 47°31' W 122°28'0 0.1
2014-Nov-25 16:34N 47°31' W 122°28'015.4
2014-Nov-25 16:33N 47°31' W 122°28'2 2.5
2014-Nov-25 15:34N 47°31' W 122°24'013.6
2014-Nov-25 15:33N 47°31' W 122°24'0 0.3
2014-Nov-25 14:33N 47°31' W 122°24'0 9.8
2014-Nov-25 14:33N 47°31' W 122°24'3 2.6
2014-Nov-25 13:34N 47°31' W 122°28'0 0.0
2014-Nov-25 13:33N 47°31' W 122°28'0 0.0
2014-Nov-25 12:34N 47°31' W 122°28'0 1.7
2014-Nov-25 12:33N 47°31' W 122°28'1 1.3
2014-Nov-25 11:34N 47°31' W 122°30'0 0.0
2014-Nov-25 10:53N 47°31' W 122°30'1 4.0
2014-Nov-25 10:33N 47°31' W 122°28'0 0.0
2014-Nov-25 10:27N 47°31' W 122°28'1 1.4
2014-Nov-25 09:33N 47°31' W 122°30'0 6.0
2014-Nov-25 09:32N 47°31' W 122°30'2 1.6
2014-Nov-25 08:33N 47°31' W 122°27'014.9
2014-Nov-25 08:32N 47°31' W 122°28'3 2.8
2014-Nov-25 07:33N 47°31' W 122°24'0 3.7
2014-Nov-25 07:31N 47°31' W 122°24'4 6.7
2014-Nov-25 06:56N 47°31' W 122°30'1 3.2
2014-Nov-25 06:34N 47°31' W 122°28'0 0.1
2014-Nov-25 05:34N 47°31' W 122°28'0 9.4
2014-Nov-25 05:31N 47°31' W 122°27'0 0.4
2014-Nov-25 04:34N 47°31' W 122°28'112.1
2014-Nov-25 04:31N 47°31' W 122°29'3 3.4
2014-Nov-25 03:33N 47°31' W 122°24'1 2.8
2014-Nov-25 03:16N 47°31' W 122°25'3 4.2
2014-Nov-25 02:34N 47°31' W 122°30'0 1.0
2014-Nov-25 02:25N 47°31' W 122°30'4 4.7
2014-Nov-25 01:34N 47°31' W 122°24'1 3.2
2014-Nov-25 01:21N 47°31' W 122°25'1 0.9
2014-Nov-25 00:33N 47°31' W 122°24'0 1.5
2014-Nov-25 00:25N 47°31' W 122°24'0 0.2
2014-Nov-24 23:33N 47°31' W 122°24'1 1.7
2014-Nov-24 23:06N 47°32' W 122°25'3 5.8
2014-Nov-24 22:34N 47°31' W 122°29'111.3
2014-Nov-24 22:31N 47°31' W 122°29'2 1.7
2014-Nov-24 21:33N 47°31' W 122°26'116.4
2014-Nov-24 21:30N 47°31' W 122°25'2 2.2
2014-Nov-24 20:34N 47°31' W 122°28'116.0
2014-Nov-24 20:30N 47°31' W 122°29'4 3.9
2014-Nov-24 19:33N 47°31' W 122°24'1 2.7
2014-Nov-24 19:15N 47°31' W 122°25'1 1.2
2014-Nov-24 18:33N 47°31' W 122°24'0 2.8
2014-Nov-24 18:29N 47°31' W 122°24'3 2.8
2014-Nov-24 17:34N 47°31' W 122°28'0 1.4
2014-Nov-24 17:29N 47°31' W 122°28'0 0.2
2014-Nov-24 16:33N 47°31' W 122°28'016.3
2014-Nov-24 16:33N 47°31' W 122°28'3 2.7
2014-Nov-24 15:33N 47°31' W 122°24'012.3
2014-Nov-24 15:33N 47°31' W 122°25'0 0.4
2014-Nov-24 14:33N 47°31' W 122°24'0 7.4
2014-Nov-24 14:32N 47°31' W 122°24'3 2.7
2014-Nov-24 13:34N 47°31' W 122°28'0 0.0
2014-Nov-24 13:33N 47°31' W 122°28'0 0.0
2014-Nov-24 12:33N 47°31' W 122°28'0 0.0
2014-Nov-24 12:33N 47°31' W 122°28'1 1.3
2014-Nov-24 11:33N 47°31' W 122°30'0 2.2
2014-Nov-24 11:32N 47°31' W 122°30'1 1.3
2014-Nov-24 10:33N 47°31' W 122°28'0 0.3
2014-Nov-24 10:32N 47°31' W 122°28'1 1.3
2014-Nov-24 09:33N 47°31' W 122°30'0 2.0
2014-Nov-24 09:33N 47°31' W 122°30'2 1.8
2014-Nov-24 08:33N 47°31' W 122°27'015.6
2014-Nov-24 08:33N 47°31' W 122°27'2 2.4
2014-Nov-24 07:33N 47°31' W 122°24'0 2.3
2014-Nov-24 07:22N 47°31' W 122°24'2 3.1
2014-Nov-24 06:36N 47°31' W 122°28'0 3.0
2014-Nov-24 06:34N 47°31' W 122°28'0 0.0
2014-Nov-24 05:34N 47°31' W 122°28'112.5
2014-Nov-24 05:29N 47°31' W 122°27'1 1.2
2014-Nov-24 04:34N 47°31' W 122°28'114.5
2014-Nov-24 04:30N 47°31' W 122°30'4 4.1
2014-Nov-24 03:32N 47°31' W 122°24'1 3.0
2014-Nov-24 03:22N 47°31' W 122°24'1 0.6
2014-Nov-24 02:31N 47°31' W 122°24'0 1.5
2014-Nov-24 02:23N 47°31' W 122°24'0 0.3
2014-Nov-24 01:33N 47°31' W 122°24'0 1.0
2014-Nov-24 01:22N 47°31' W 122°24'3 4.3
2014-Nov-24 00:33N 47°31' W 122°29'010.8
2014-Nov-24 00:32N 47°31' W 122°29'1 1.3
2014-Nov-23 23:34N 47°31' W 122°27'010.2
2014-Nov-23 23:32N 47°31' W 122°27'0 0.3
2014-Nov-23 22:34N 47°31' W 122°28'115.0
2014-Nov-23 22:30N 47°31' W 122°26'1 1.0
2014-Nov-23 21:33N 47°31' W 122°28'0 0.2
2014-Nov-23 20:36N 47°31' W 122°28'114.7
2014-Nov-23 20:33N 47°31' W 122°29'1 1.6
2014-Nov-23 20:05N 47°31' W 122°28'3 5.1
2014-Nov-23 19:32N 47°31' W 122°24'4 7.0
2014-Nov-23 18:58N 47°31' W 122°30'1 3.0
2014-Nov-23 18:33N 47°31' W 122°28'0 0.0
2014-Nov-23 18:32N 47°31' W 122°28'0 0.0
2014-Nov-23 17:33N 47°31' W 122°28'0 0.1
2014-Nov-23 16:49N 47°31' W 122°28'310.4
2014-Nov-23 16:33N 47°31' W 122°24'0 0.4
2014-Nov-23 16:13N 47°31' W 122°24'4 5.9
2014-Nov-23 15:33N 47°31' W 122°30'0 0.0
2014-Nov-23 15:33N 47°31' W 122°30'4 4.1
2014-Nov-23 14:33N 47°31' W 122°24'111.4
2014-Nov-23 14:28N 47°31' W 122°25'2 2.0
2014-Nov-23 13:33N 47°31' W 122°28'0 0.0
2014-Nov-23 13:33N 47°31' W 122°28'0 0.0
2014-Nov-23 12:33N 47°31' W 122°28'0 0.0
2014-Nov-23 12:33N 47°31' W 122°28'1 1.3
2014-Nov-23 11:33N 47°31' W 122°30'0 0.0
2014-Nov-23 11:27N 47°31' W 122°30'1 1.5
2014-Nov-23 10:33N 47°31' W 122°28'0 0.0
2014-Nov-23 10:33N 47°31' W 122°28'1 1.3
2014-Nov-23 09:33N 47°31' W 122°30'0 0.0
2014-Nov-23 09:33N 47°31' W 122°30'2 2.0
2014-Nov-23 08:33N 47°31' W 122°27'012.0
2014-Nov-23 08:32N 47°31' W 122°27'2 2.4
2014-Nov-23 07:33N 47°31' W 122°24'0 1.2
2014-Nov-23 07:23N 47°31' W 122°24'4 8.7
2014-Nov-23 06:57N 47°31' W 122°30'1 3.0
2014-Nov-23 06:34N 47°31' W 122°28'0 0.1
2014-Nov-23 05:33N 47°31' W 122°28'0 4.3
2014-Nov-23 05:32N 47°31' W 122°28'0 0.4
2014-Nov-23 04:34N 47°31' W 122°28'012.0
2014-Nov-23 04:32N 47°31' W 122°29'3 3.3
2014-Nov-23 03:33N 47°31' W 122°24'0 0.7
2014-Nov-23 03:22N 47°31' W 122°24'0 0.2
2014-Nov-23 02:33N 47°31' W 122°24'0 2.4
2014-Nov-23 02:22N 47°31' W 122°24'0 0.5
2014-Nov-23 01:33N 47°31' W 122°24'1 6.2
2014-Nov-23 01:27N 47°31' W 122°25'2 2.4
2014-Nov-23 00:33N 47°31' W 122°28'0 5.9
2014-Nov-23 00:32N 47°31' W 122°28'0 0.1
2014-Nov-22 23:34N 47°31' W 122°28'0 0.2
2014-Nov-22 23:31N 47°31' W 122°28'0 0.4
2014-Nov-22 22:34N 47°31' W 122°28'114.0
2014-Nov-22 22:31N 47°31' W 122°27'0 0.5
2014-Nov-22 21:33N 47°31' W 122°28'012.9
2014-Nov-22 21:31N 47°31' W 122°27'1 0.6
2014-Nov-22 20:34N 47°31' W 122°28'011.1
2014-Nov-22 20:31N 47°31' W 122°29'3 3.3
2014-Nov-22 19:33N 47°31' W 122°24'1 6.3
2014-Nov-22 19:26N 47°31' W 122°25'2 2.3
2014-Nov-22 18:33N 47°31' W 122°28'0 0.0
2014-Nov-22 18:31N 47°31' W 122°28'0 0.0
2014-Nov-22 17:33N 47°31' W 122°28'0 1.6
2014-Nov-22 17:31N 47°31' W 122°28'3 2.9
2014-Nov-22 16:33N 47°31' W 122°24'1 1.7
2014-Nov-22 16:11N 47°31' W 122°25'3 5.5
2014-Nov-22 15:33N 47°31' W 122°30'0 0.0
2014-Nov-22 15:31N 47°31' W 122°30'4 4.2
2014-Nov-22 14:34N 47°31' W 122°24'0 6.4
2014-Nov-22 14:30N 47°31' W 122°24'2 2.6
2014-Nov-22 13:33N 47°31' W 122°28'1 1.5
2014-Nov-22 12:48N 47°31' W 122°26'1 5.4
2014-Nov-22 12:34N 47°31' W 122°28'1 1.1
2014-Nov-22 11:34N 47°31' W 122°30'4 4.1
2014-Nov-22 10:33N 47°31' W 122°24'3 4.1
2014-Nov-22 09:52N 47°31' W 122°28'3 8.9
2014-Nov-22 09:33N 47°31' W 122°24'3 9.9
2014-Nov-22 09:16N 47°31' W 122°28'3 3.9
2014-Nov-22 08:33N 47°31' W 122°24'1 1.2
2014-Nov-22 07:34N 47°31' W 122°26'2 3.9
2014-Nov-22 07:07N 47°31' W 122°28'3 5.0
2014-Nov-22 06:33N 47°31' W 122°24'1 4.2
2014-Nov-22 06:17N 47°31' W 122°25'3 3.8
2014-Nov-22 05:34N 47°31' W 122°30'0 3.8
2014-Nov-22 05:32N 47°31' W 122°30'2 1.7
2014-Nov-22 04:34N 47°31' W 122°27'013.2
2014-Nov-22 04:32N 47°31' W 122°27'0 0.4
2014-Nov-22 03:33N 47°31' W 122°28'0 3.3
2014-Nov-22 03:32N 47°31' W 122°28'3 2.8
2014-Nov-22 02:33N 47°31' W 122°24'1 1.8
2014-Nov-22 02:12N 47°32' W 122°25'2 3.5
2014-Nov-22 01:33N 47°31' W 122°28'0 0.0
2014-Nov-22 01:31N 47°31' W 122°28'0 0.0
2014-Nov-22 00:34N 47°31' W 122°28'0 0.0
2014-Nov-22 00:31N 47°31' W 122°28'1 1.4
2014-Nov-21 23:33N 47°31' W 122°26'012.5
2014-Nov-21 23:31N 47°31' W 122°26'2 1.7
2014-Nov-21 22:33N 47°31' W 122°24'114.6
2014-Nov-21 22:31N 47°31' W 122°25'2 2.1
2014-Nov-21 21:33N 47°31' W 122°28'0 0.1
2014-Nov-21 21:31N 47°31' W 122°28'2 1.7
2014-Nov-21 20:33N 47°31' W 122°25'213.5
2014-Nov-21 20:26N 47°31' W 122°28'0 0.1
2014-Nov-21 19:33N 47°31' W 122°28'0 3.0
2014-Nov-21 19:31N 47°31' W 122°28'1 0.5
2014-Nov-21 18:34N 47°31' W 122°27'115.0
2014-Nov-21 18:31N 47°31' W 122°27'1 1.1
2014-Nov-21 17:34N 47°31' W 122°28'1 3.4
2014-Nov-21 17:10N 47°31' W 122°30'4 6.6
2014-Nov-21 16:33N 47°31' W 122°24'110.8
2014-Nov-21 16:29N 47°31' W 122°25'2 2.1
2014-Nov-21 15:33N 47°31' W 122°28'0 0.0
2014-Nov-21 15:30N 47°31' W 122°28'0 0.0
2014-Nov-21 14:33N 47°31' W 122°28'0 0.1
2014-Nov-21 14:30N 47°31' W 122°28'0 0.0
2014-Nov-21 13:33N 47°31' W 122°28'0 0.0
2014-Nov-21 13:30N 47°31' W 122°28'0 0.0
2014-Nov-21 12:33N 47°31' W 122°28'0 0.0
2014-Nov-21 12:29N 47°31' W 122°28'0 0.0
2014-Nov-21 11:33N 47°31' W 122°28'0 0.0
2014-Nov-21 11:29N 47°31' W 122°28'0 0.0
2014-Nov-21 10:33N 47°31' W 122°28'0 0.0
2014-Nov-21 10:29N 47°31' W 122°28'0 0.0
2014-Nov-21 09:33N 47°31' W 122°28'0 0.0
2014-Nov-21 09:29N 47°31' W 122°28'0 0.0
2014-Nov-21 08:33N 47°31' W 122°28'0 0.0
2014-Nov-21 08:29N 47°31' W 122°28'0 0.0
2014-Nov-21 07:33N 47°31' W 122°28'0 0.0
2014-Nov-21 07:28N 47°31' W 122°28'0 0.0
2014-Nov-21 06:53N 47°31' W 122°28'0 0.0
2014-Nov-21 06:33N 47°31' W 122°28'1 1.3
2014-Nov-21 05:33N 47°31' W 122°30'0 2.9
2014-Nov-21 05:28N 47°31' W 122°30'2 1.8
2014-Nov-21 04:34N 47°31' W 122°27'1 6.6
2014-Nov-21 04:28N 47°31' W 122°28'0 0.0
2014-Nov-21 03:33N 47°31' W 122°28'0 0.0
2014-Nov-21 03:33N 47°31' W 122°28'3 2.8
2014-Nov-21 02:33N 47°31' W 122°24'1 1.7
2014-Nov-21 02:08N 47°32' W 122°25'2 3.7
2014-Nov-21 01:34N 47°31' W 122°28'0 1.7
2014-Nov-21 01:33N 47°31' W 122°28'0 0.1
2014-Nov-21 00:34N 47°31' W 122°28'0 0.0
2014-Nov-21 00:33N 47°31' W 122°28'1 1.2
2014-Nov-20 23:33N 47°31' W 122°26'110.1
2014-Nov-20 23:26N 47°31' W 122°28'1 1.1
2014-Nov-20 22:34N 47°31' W 122°26'115.9
2014-Nov-20 22:31N 47°31' W 122°27'0 0.4
2014-Nov-20 21:33N 47°31' W 122°28'0 0.0
2014-Nov-20 21:30N 47°31' W 122°28'1 1.5
2014-Nov-20 20:34N 47°31' W 122°26'112.8
2014-Nov-20 20:31N 47°31' W 122°27'1 0.8
2014-Nov-20 19:34N 47°31' W 122°28'0 3.2
2014-Nov-20 19:31N 47°31' W 122°28'1 0.6
2014-Nov-20 18:33N 47°31' W 122°27'112.7
2014-Nov-20 18:30N 47°31' W 122°26'1 1.2
2014-Nov-20 17:34N 47°31' W 122°28'1 6.5
2014-Nov-20 17:25N 47°31' W 122°29'4 4.2
2014-Nov-20 16:34N 47°31' W 122°24'0 7.5
2014-Nov-20 16:30N 47°31' W 122°24'2 2.5
2014-Nov-20 15:33N 47°31' W 122°28'0 0.1
2014-Nov-20 15:30N 47°31' W 122°28'0 0.0
2014-Nov-20 14:33N 47°31' W 122°28'0 0.1
2014-Nov-20 14:30N 47°31' W 122°28'0 0.0
2014-Nov-20 13:33N 47°31' W 122°28'0 0.0
2014-Nov-20 13:30N 47°31' W 122°28'0 0.0
2014-Nov-20 12:33N 47°31' W 122°28'0 0.0
2014-Nov-20 12:30N 47°31' W 122°28'0 0.0
2014-Nov-20 11:33N 47°31' W 122°28'0 0.0
2014-Nov-20 11:29N 47°31' W 122°28'0 0.0
2014-Nov-20 10:34N 47°31' W 122°28'0 0.0
2014-Nov-20 10:29N 47°31' W 122°28'0 0.0
2014-Nov-20 09:34N 47°31' W 122°28'0 0.0
2014-Nov-20 09:29N 47°31' W 122°28'0 0.0
2014-Nov-20 08:33N 47°31' W 122°28'0 0.0
2014-Nov-20 08:24N 47°31' W 122°28'0 0.0
2014-Nov-20 07:49N 47°31' W 122°28'0 0.0
2014-Nov-20 07:33N 47°31' W 122°28'0 0.0
2014-Nov-20 06:33N 47°31' W 122°28'0 0.0
2014-Nov-20 06:28N 47°31' W 122°28'1 1.5
2014-Nov-20 05:33N 47°31' W 122°30'0 0.0
2014-Nov-20 05:33N 47°31' W 122°30'2 1.7
2014-Nov-20 04:34N 47°31' W 122°27'011.7
2014-Nov-20 04:33N 47°31' W 122°27'0 0.4
2014-Nov-20 03:33N 47°31' W 122°28'0 2.2
2014-Nov-20 03:32N 47°31' W 122°28'3 2.9
2014-Nov-20 02:33N 47°31' W 122°24'3 2.8
2014-Nov-20 01:33N 47°31' W 122°28'2 2.3
2014-Nov-20 00:44N 47°31' W 122°25'210.7
2014-Nov-20 00:33N 47°31' W 122°28'0 0.0
2014-Nov-20 00:29N 47°31' W 122°28'1 1.6
2014-Nov-19 23:33N 47°31' W 122°26'115.4
2014-Nov-19 23:28N 47°31' W 122°28'3 2.8
2014-Nov-19 22:33N 47°31' W 122°24'110.1
2014-Nov-19 22:28N 47°31' W 122°25'2 2.1
2014-Nov-19 21:34N 47°31' W 122°28'0 1.5
2014-Nov-19 21:33N 47°31' W 122°28'2 1.5
2014-Nov-19 20:33N 47°31' W 122°26'010.5
2014-Nov-19 20:33N 47°31' W 122°26'1 1.1
2014-Nov-19 19:34N 47°31' W 122°27'010.1
2014-Nov-19 19:33N 47°31' W 122°27'0 0.3
2014-Nov-19 18:34N 47°31' W 122°28'014.9
2014-Nov-19 18:32N 47°31' W 122°27'1 0.7
2014-Nov-19 17:33N 47°31' W 122°28'1 2.8
2014-Nov-19 17:05N 47°31' W 122°30'4 7.6
2014-Nov-19 16:33N 47°31' W 122°24'1 9.1
2014-Nov-19 16:26N 47°31' W 122°25'2 1.9
2014-Nov-19 15:33N 47°31' W 122°28'0 0.2
2014-Nov-19 15:30N 47°31' W 122°28'0 0.0
2014-Nov-19 14:33N 47°31' W 122°28'1 1.4
2014-Nov-19 13:54N 47°31' W 122°27'1 2.5
2014-Nov-19 13:33N 47°31' W 122°28'0 0.0
2014-Nov-19 13:29N 47°31' W 122°28'0 0.0
2014-Nov-19 12:33N 47°31' W 122°28'0 0.0
2014-Nov-19 12:29N 47°31' W 122°28'0 0.0
2014-Nov-19 11:33N 47°31' W 122°28'0 0.0
2014-Nov-19 11:29N 47°31' W 122°28'0 0.0
2014-Nov-19 10:33N 47°31' W 122°28'0 0.0
2014-Nov-19 10:29N 47°31' W 122°28'0 0.0
2014-Nov-19 09:33N 47°31' W 122°28'0 0.0
2014-Nov-19 09:29N 47°31' W 122°28'0 0.0
2014-Nov-19 08:33N 47°31' W 122°28'0 0.0
2014-Nov-19 08:29N 47°31' W 122°28'0 0.0
2014-Nov-19 07:34N 47°31' W 122°28'0 0.0
2014-Nov-19 07:33N 47°31' W 122°28'0 0.0
2014-Nov-19 06:58N 47°31' W 122°28'0 0.0
2014-Nov-19 06:33N 47°31' W 122°28'1 1.3
2014-Nov-19 05:33N 47°31' W 122°30'0 0.0
2014-Nov-19 05:33N 47°31' W 122°30'2 1.8
2014-Nov-19 04:33N 47°31' W 122°27'015.3
2014-Nov-19 04:33N 47°31' W 122°27'0 0.5
2014-Nov-19 03:33N 47°31' W 122°28'0 0.0
2014-Nov-19 03:33N 47°31' W 122°28'0 0.0
2014-Nov-19 02:33N 47°31' W 122°28'0 0.0
2014-Nov-19 02:13N 47°31' W 122°28'0 0.0
2014-Nov-19 01:33N 47°31' W 122°28'0 0.0
2014-Nov-19 01:28N 47°31' W 122°28'0 0.0
2014-Nov-19 00:33N 47°31' W 122°28'0 0.0
2014-Nov-19 00:33N 47°31' W 122°28'1 1.3
2014-Nov-18 23:33N 47°31' W 122°26'015.6
2014-Nov-18 23:33N 47°31' W 122°26'2 1.7
2014-Nov-18 22:33N 47°31' W 122°24'113.2
2014-Nov-18 22:27N 47°31' W 122°26'1 1.6
2014-Nov-18 21:34N 47°31' W 122°28'0 0.0
2014-Nov-18 21:32N 47°31' W 122°28'2 1.7
2014-Nov-18 20:34N 47°31' W 122°25'114.6
2014-Nov-18 20:28N 47°31' W 122°27'0 0.1
2014-Nov-18 19:34N 47°31' W 122°28'0 2.1
2014-Nov-18 19:27N 47°31' W 122°28'0 0.5
2014-Nov-18 18:33N 47°31' W 122°27'116.6
2014-Nov-18 18:31N 47°31' W 122°26'1 1.0
2014-Nov-18 17:34N 47°31' W 122°28'110.8
2014-Nov-18 17:26N 47°31' W 122°30'4 4.5
2014-Nov-18 16:33N 47°31' W 122°24'0 3.0
2014-Nov-18 16:31N 47°31' W 122°24'3 2.8
2014-Nov-18 15:33N 47°31' W 122°28'0 0.0
2014-Nov-18 15:30N 47°31' W 122°28'0 0.0
2014-Nov-18 14:33N 47°31' W 122°28'0 0.1
2014-Nov-18 14:31N 47°31' W 122°28'0 0.0
2014-Nov-18 13:33N 47°31' W 122°28'0 0.0
2014-Nov-18 13:21N 47°31' W 122°28'0 0.0
2014-Nov-18 12:33N 47°31' W 122°28'0 0.0
2014-Nov-18 12:31N 47°31' W 122°28'0 0.0
2014-Nov-18 11:33N 47°31' W 122°28'0 0.1
2014-Nov-18 11:31N 47°31' W 122°28'0 0.0
2014-Nov-18 10:33N 47°31' W 122°28'0 0.1
2014-Nov-18 10:30N 47°31' W 122°28'0 0.0
2014-Nov-18 09:33N 47°31' W 122°28'0 0.0
2014-Nov-18 09:30N 47°31' W 122°28'0 0.0
2014-Nov-18 08:33N 47°31' W 122°28'0 0.0
2014-Nov-18 08:30N 47°31' W 122°28'0 0.0
2014-Nov-18 07:33N 47°31' W 122°28'0 0.0
2014-Nov-18 07:30N 47°31' W 122°28'0 0.0
2014-Nov-18 07:00N 47°31' W 122°28'0 0.0
2014-Nov-18 06:33N 47°31' W 122°28'1 1.3
2014-Nov-18 05:33N 47°31' W 122°30'0 1.1
2014-Nov-18 05:30N 47°31' W 122°30'2 1.6
2014-Nov-18 04:33N 47°31' W 122°27'0 5.7
2014-Nov-18 04:30N 47°31' W 122°28'0 0.0
2014-Nov-18 03:33N 47°31' W 122°28'1 8.1
2014-Nov-18 03:29N 47°31' W 122°28'3 3.3
2014-Nov-18 02:33N 47°31' W 122°24'0 1.3
2014-Nov-18 02:09N 47°32' W 122°25'2 4.0
2014-Nov-18 01:33N 47°31' W 122°28'0 0.5
2014-Nov-18 01:29N 47°31' W 122°28'0 0.0
2014-Nov-18 00:33N 47°31' W 122°28'  

Dump ship's entire track history